Time;durP1;ratioP1;P1;durP2;ratioP2;P2;SDS_P1;SDS_P2;PMS_P1;PMS_P2;Temp;Humidity;BMP_temperature;BMP_pressure;BME280_temperature;BME280_humidity;BME280_pressure;Samples;Min_cycle;Max_cycle;Signal;HPM_P1;HPM_P2
2021/09/17 00:01:47;;;;;;;2.87;1.93;;;16.20;99.90;;;;;;5031410;28;20309;-70
2021/09/17 00:04:13;;;;;;;3.70;2.50;;;16.20;99.90;;;;;;5031142;28;20221;-71
2021/09/17 00:06:38;;;;;;;3.93;2.57;;;16.30;99.90;;;;;;5031285;28;20586;-71
2021/09/17 00:09:03;;;;;;;2.87;2.00;;;16.30;99.90;;;;;;5031188;28;20174;-71
2021/09/17 00:11:29;;;;;;;2.53;2.33;;;16.20;99.90;;;;;;5031140;28;20721;-71
2021/09/17 00:13:54;;;;;;;3.60;2.50;;;16.20;99.90;;;;;;5031074;28;20207;-69
2021/09/17 00:16:20;;;;;;;2.83;2.43;;;16.20;99.90;;;;;;5031073;28;20167;-69
2021/09/17 00:18:46;;;;;;;3.67;2.43;;;16.20;99.90;;;;;;5030856;28;20681;-70
2021/09/17 00:21:11;;;;;;;3.40;2.47;;;16.20;99.90;;;;;;5031383;28;20521;-70
2021/09/17 00:23:37;;;;;;;4.30;2.43;;;16.20;99.90;;;;;;5031270;28;20210;-70
2021/09/17 00:26:03;;;;;;;2.77;2.47;;;16.20;99.90;;;;;;5030805;28;20169;-69
2021/09/17 00:28:28;;;;;;;5.37;2.93;;;16.20;99.90;;;;;;5030997;28;20417;-69
2021/09/17 00:30:54;;;;;;;3.23;2.93;;;16.20;99.90;;;;;;5030985;28;20329;-69
2021/09/17 00:33:19;;;;;;;3.13;2.40;;;16.20;99.90;;;;;;5030897;28;20206;-69
2021/09/17 00:35:45;;;;;;;4.03;2.80;;;16.20;99.90;;;;;;5030674;28;20198;-69
2021/09/17 00:38:10;;;;;;;4.10;2.10;;;16.20;99.90;;;;;;5030860;28;20235;-71
2021/09/17 00:40:35;;;;;;;2.70;2.33;;;16.10;99.90;;;;;;5031108;28;20535;-71
2021/09/17 00:43:01;;;;;;;5.47;2.40;;;16.10;99.90;;;;;;5031226;28;20264;-70
2021/09/17 00:45:26;;;;;;;3.80;2.20;;;16.10;99.90;;;;;;5030608;28;20524;-70
2021/09/17 00:47:52;;;;;;;4.17;2.23;;;16.10;99.90;;;;;;5032595;28;20269;-70
2021/09/17 00:50:19;;;;;;;4.93;2.30;;;16.10;99.90;;;;;;5034913;28;20570;-71
2021/09/17 00:52:47;;;;;;;3.70;2.30;;;16.10;99.90;;;;;;5034811;28;20194;-70
2021/09/17 00:55:13;;;;;;;2.43;2.13;;;16.10;99.90;;;;;;5034541;28;20507;-70
2021/09/17 00:57:39;;;;;;;5.73;3.13;;;16.10;99.90;;;;;;5034568;28;20406;-70
2021/09/17 01:00:09;;;;;;;2.50;2.27;;;16.10;99.90;;;;;;5035026;28;20435;-71
2021/09/17 01:02:34;;;;;;;4.13;2.80;;;16.10;99.90;;;;;;5034604;28;20449;-71
2021/09/17 01:05:01;;;;;;;2.80;2.33;;;16.10;99.90;;;;;;5033492;28;20432;-72
2021/09/17 01:07:26;;;;;;;5.10;2.23;;;16.10;99.90;;;;;;5032664;28;20273;-70
2021/09/17 01:09:53;;;;;;;6.80;5.03;;;16.10;99.90;;;;;;5035173;28;20499;-70
2021/09/17 01:12:20;;;;;;;9.90;2.87;;;16.10;99.90;;;;;;5034277;28;20209;-70
2021/09/17 01:14:46;;;;;;;3.63;2.23;;;16.10;99.90;;;;;;5034437;28;20431;-70
2021/09/17 01:17:12;;;;;;;3.60;2.30;;;16.10;99.90;;;;;;5034126;28;20457;-70
2021/09/17 01:19:38;;;;;;;3.77;2.23;;;16.10;99.90;;;;;;5034890;28;20441;-70
2021/09/17 01:22:06;;;;;;;3.80;2.30;;;16.10;99.90;;;;;;5034209;28;20177;-70
2021/09/17 01:24:33;;;;;;;3.23;2.13;;;16.10;99.90;;;;;;5034211;28;20197;-70
2021/09/17 01:26:58;;;;;;;3.70;3.17;;;16.10;99.90;;;;;;5034016;28;20413;-70
2021/09/17 01:29:24;;;;;;;4.17;2.87;;;16.20;99.90;;;;;;5034247;28;20413;-70
2021/09/17 01:31:51;;;;;;;5.27;2.53;;;16.10;99.90;;;;;;5034153;28;20187;-70
2021/09/17 01:34:23;;;;;;;4.60;2.50;;;16.10;99.90;;;;;;5033927;28;20427;-70
2021/09/17 01:36:50;;;;;;;4.73;1.90;;;16.10;99.90;;;;;;5033693;28;20495;-70
2021/09/17 01:39:17;;;;;;;2.10;1.90;;;16.00;99.90;;;;;;5033852;28;20416;-70
2021/09/17 01:41:43;;;;;;;3.17;1.90;;;16.00;99.90;;;;;;5034016;28;20412;-70
2021/09/17 01:44:09;;;;;;;2.73;1.77;;;16.00;99.90;;;;;;5033963;28;20909;-70
2021/09/17 01:46:34;;;;;;;4.00;2.20;;;16.00;99.90;;;;;;5033915;28;20194;-70
2021/09/17 01:49:00;;;;;;;2.00;1.87;;;16.00;99.90;;;;;;5033749;28;20199;-70
2021/09/17 01:51:26;;;;;;;4.90;2.47;;;16.00;99.90;;;;;;5033921;28;20228;-70
2021/09/17 01:53:51;;;;;;;2.27;2.10;;;16.00;99.90;;;;;;5033616;28;20211;-70
2021/09/17 01:56:17;;;;;;;5.17;2.30;;;16.00;99.90;;;;;;5033672;28;20185;-70
2021/09/17 01:58:43;;;;;;;2.97;2.50;;;16.00;99.90;;;;;;5033396;28;20171;-70
2021/09/17 02:01:09;;;;;;;3.13;2.47;;;16.00;99.90;;;;;;5033365;28;20693;-71
2021/09/17 02:03:34;;;;;;;3.63;2.20;;;16.00;99.90;;;;;;5033520;28;20527;-70
2021/09/17 02:06:00;;;;;;;3.27;2.23;;;16.00;99.90;;;;;;5033423;28;20523;-70
2021/09/17 02:08:26;;;;;;;3.63;1.70;;;16.00;99.90;;;;;;5033710;28;20176;-70
2021/09/17 02:10:51;;;;;;;2.27;2.00;;;15.90;99.90;;;;;;5015908;28;20360;-71
2021/09/17 02:13:19;;;;;;;10.67;2.40;;;15.90;99.90;;;;;;5033399;28;20308;-70
2021/09/17 02:15:46;;;;;;;5.93;2.13;;;15.90;99.90;;;;;;5033217;28;20174;-71
2021/09/17 02:18:12;;;;;;;4.30;2.37;;;15.90;99.90;;;;;;5033256;28;20483;-70
2021/09/17 02:20:37;;;;;;;10.00;2.50;;;15.90;99.90;;;;;;5033621;28;21003;-70
2021/09/17 02:23:03;;;;;;;3.47;1.60;;;15.90;99.90;;;;;;5033364;28;20197;-70
2021/09/17 02:25:28;;;;;;;9.63;3.47;;;15.90;99.90;;;;;;5033149;28;20181;-69
2021/09/17 02:27:54;;;;;;;2.70;1.90;;;15.90;99.90;;;;;;5033186;28;20178;-71
2021/09/17 02:30:20;;;;;;;5.70;2.40;;;15.90;99.90;;;;;;5033255;28;20679;-69
2021/09/17 02:32:45;;;;;;;4.00;2.40;;;15.90;99.90;;;;;;5033100;28;20859;-70
2021/09/17 02:35:11;;;;;;;5.67;2.00;;;15.90;99.90;;;;;;5033021;28;20193;-70
2021/09/17 02:37:38;;;;;;;2.90;2.70;;;15.90;99.90;;;;;;5032935;28;20173;-70
2021/09/17 02:40:04;;;;;;;2.47;2.27;;;15.90;99.90;;;;;;5032900;28;20440;-70
2021/09/17 02:42:29;;;;;;;3.53;2.60;;;15.80;99.90;;;;;;5032809;28;20412;-70
2021/09/17 02:44:55;;;;;;;2.03;1.70;;;15.70;99.90;;;;;;5033258;28;20427;-70
2021/09/17 02:47:21;;;;;;;2.30;1.60;;;15.80;99.90;;;;;;5014512;28;20173;-70
2021/09/17 02:49:46;;;;;;;1.70;1.53;;;15.80;99.90;;;;;;5032791;28;20174;-70
2021/09/17 02:52:12;;;;;;;2.33;1.90;;;15.80;99.90;;;;;;5032575;28;21024;-70
2021/09/17 02:54:38;;;;;;;1.47;1.37;;;15.80;99.90;;;;;;5032655;28;20200;-70
2021/09/17 02:57:03;;;;;;;1.40;1.30;;;15.80;99.90;;;;;;5032343;28;20233;-70
2021/09/17 02:59:29;;;;;;;1.40;1.30;;;15.80;99.90;;;;;;5032544;28;20303;-70
2021/09/17 03:01:54;;;;;;;1.47;1.37;;;15.80;99.90;;;;;;5032431;28;20192;-70
2021/09/17 03:04:20;;;;;;;1.37;1.20;;;15.80;99.90;;;;;;5032670;28;20272;-70
2021/09/17 03:06:45;;;;;;;1.30;1.10;;;15.80;99.90;;;;;;5031779;28;20170;-71
2021/09/17 03:09:11;;;;;;;1.77;0.97;;;15.80;99.90;;;;;;5032350;28;20661;-70
2021/09/17 03:11:36;;;;;;;2.60;1.20;;;15.80;99.90;;;;;;5031426;28;20174;-70
2021/09/17 03:14:02;;;;;;;1.37;1.27;;;15.80;99.90;;;;;;5032296;28;20264;-70
2021/09/17 03:16:27;;;;;;;1.33;1.23;;;15.70;99.90;;;;;;5032035;28;20201;-70
2021/09/17 03:18:53;;;;;;;1.33;1.17;;;15.60;99.90;;;;;;5032224;28;20172;-70
2021/09/17 03:21:18;;;;;;;1.10;1.00;;;15.50;99.90;;;;;;5032207;28;20160;-70
2021/09/17 03:23:44;;;;;;;2.03;1.67;;;15.50;99.90;;;;;;5032056;28;20243;-70
2021/09/17 03:26:09;;;;;;;1.40;1.30;;;15.40;99.90;;;;;;5031321;28;20638;-70
2021/09/17 03:28:35;;;;;;;1.40;1.30;;;15.50;99.90;;;;;;5032603;28;20177;-70
2021/09/17 03:31:00;;;;;;;2.07;1.80;;;15.40;99.90;;;;;;5032323;28;20641;-70
2021/09/17 03:33:26;;;;;;;1.20;1.10;;;15.30;99.90;;;;;;5032190;28;20284;-70
2021/09/17 03:35:51;;;;;;;1.40;1.30;;;15.40;99.90;;;;;;5031829;28;20165;-70
2021/09/17 03:38:17;;;;;;;1.70;1.50;;;15.40;99.90;;;;;;5031908;28;20252;-70
2021/09/17 03:40:42;;;;;;;1.53;1.43;;;15.40;99.90;;;;;;5032021;28;20662;-70
2021/09/17 03:43:09;;;;;;;1.30;1.20;;;15.40;99.90;;;;;;5031815;28;20201;-70
2021/09/17 03:45:36;;;;;;;2.20;1.07;;;15.40;99.90;;;;;;5031636;28;20325;-71
2021/09/17 03:48:09;;;;;;;1.47;1.37;;;15.40;99.90;;;;;;5032280;28;20536;-70
2021/09/17 03:50:35;;;;;;;1.20;1.10;;;15.40;99.90;;;;;;5031957;28;20411;-70
2021/09/17 03:53:01;;;;;;;1.43;1.00;;;15.40;99.90;;;;;;5031795;28;20985;-70
2021/09/17 03:55:26;;;;;;;2.07;1.40;;;15.30;99.90;;;;;;5031592;28;20188;-70
2021/09/17 03:57:52;;;;;;;1.23;1.10;;;15.40;99.90;;;;;;5032063;28;20218;-70
2021/09/17 04:00:17;;;;;;;0.87;0.87;;;15.30;99.90;;;;;;5031791;28;20171;-70
2021/09/17 04:02:43;;;;;;;1.00;1.00;;;15.30;99.90;;;;;;5032270;28;20177;-70
2021/09/17 04:05:08;;;;;;;1.77;1.27;;;15.30;99.90;;;;;;5033531;28;20195;-71
2021/09/17 04:07:41;;;;;;;1.27;0.93;;;15.30;99.90;;;;;;5033167;28;20169;-71
2021/09/17 04:10:10;;;;;;;1.20;1.10;;;15.30;99.90;;;;;;5034675;28;20183;-71
2021/09/17 04:12:36;;;;;;;4.20;1.30;;;15.20;99.90;;;;;;5033862;28;20948;-71
2021/09/17 04:15:03;;;;;;;1.23;1.10;;;15.20;99.90;;;;;;5033779;28;20461;-71
2021/09/17 04:17:28;;;;;;;0.90;0.90;;;15.10;99.90;;;;;;5032616;28;20160;-71
2021/09/17 04:19:54;;;;;;;0.87;0.70;;;15.00;99.90;;;;;;5032395;28;20406;-71
2021/09/17 04:22:19;;;;;;;1.53;1.40;;;14.90;99.90;;;;;;5031022;28;20173;-70
2021/09/17 04:24:45;;;;;;;0.93;0.93;;;14.90;99.90;;;;;;5031416;28;20195;-70
2021/09/17 04:27:10;;;;;;;1.53;1.00;;;14.80;99.90;;;;;;5030827;28;20294;-70
2021/09/17 04:29:36;;;;;;;2.27;1.20;;;14.90;99.90;;;;;;5031518;28;20479;-70
2021/09/17 04:32:02;;;;;;;0.80;0.70;;;14.80;99.90;;;;;;5031238;28;20719;-70
2021/09/17 04:34:28;;;;;;;1.10;0.90;;;14.80;99.90;;;;;;5031178;28;20551;-70
2021/09/17 04:36:53;;;;;;;0.90;0.80;;;14.80;99.90;;;;;;5013124;28;20402;-70
2021/09/17 04:39:19;;;;;;;1.20;1.10;;;14.80;99.90;;;;;;5031040;28;20225;-70
2021/09/17 04:41:44;;;;;;;1.03;1.03;;;14.80;99.90;;;;;;5031026;28;20180;-70
2021/09/17 04:44:10;;;;;;;4.47;1.13;;;14.80;99.90;;;;;;5030844;28;20191;-70
2021/09/17 04:46:36;;;;;;;1.30;1.00;;;14.80;99.90;;;;;;5013127;28;20535;-70
2021/09/17 04:49:01;;;;;;;1.73;0.90;;;14.80;99.90;;;;;;5031145;28;20543;-70
2021/09/17 04:51:28;;;;;;;0.70;0.70;;;14.80;99.90;;;;;;5030929;28;20172;-70
2021/09/17 04:53:53;;;;;;;1.40;0.77;;;14.80;99.90;;;;;;5030801;28;20199;-70
2021/09/17 04:56:19;;;;;;;0.70;0.70;;;14.80;99.90;;;;;;5030605;28;20936;-71
2021/09/17 04:58:45;;;;;;;2.90;0.87;;;14.80;99.90;;;;;;5031054;28;20168;-70
2021/09/17 05:01:10;;;;;;;0.80;0.80;;;14.70;99.90;;;;;;5030893;28;20168;-70
2021/09/17 05:03:36;;;;;;;0.83;0.83;;;14.70;99.90;;;;;;5030814;28;20839;-71
2021/09/17 05:06:02;;;;;;;1.47;1.30;;;14.80;99.90;;;;;;5030518;28;20176;-71
2021/09/17 05:08:27;;;;;;;1.00;0.93;;;14.80;99.90;;;;;;5031001;28;20173;-71
2021/09/17 05:10:53;;;;;;;1.47;1.10;;;14.80;99.90;;;;;;5030893;28;20222;-71
2021/09/17 05:13:18;;;;;;;0.73;0.70;;;14.80;99.90;;;;;;5030837;28;20206;-70
2021/09/17 05:15:44;;;;;;;0.93;0.87;;;14.80;99.90;;;;;;5030421;28;20175;-70
2021/09/17 05:18:09;;;;;;;1.10;0.87;;;14.80;99.90;;;;;;5030573;28;20172;-70
2021/09/17 05:20:34;;;;;;;0.80;0.80;;;14.80;99.90;;;;;;5030695;28;20164;-70
2021/09/17 05:23:00;;;;;;;0.60;0.60;;;14.80;99.90;;;;;;5031023;28;20176;-70
2021/09/17 05:25:27;;;;;;;0.80;0.80;;;14.80;99.90;;;;;;5030133;28;20228;-70
2021/09/17 05:27:52;;;;;;;4.53;1.00;;;14.80;99.90;;;;;;5030642;28;20173;-70
2021/09/17 05:30:18;;;;;;;1.10;0.80;;;14.80;99.90;;;;;;5012913;28;20838;-70
2021/09/17 05:32:43;;;;;;;0.70;0.70;;;14.90;99.90;;;;;;5030630;28;20251;-70
2021/09/17 05:35:09;;;;;;;0.77;0.77;;;14.90;99.90;;;;;;5032407;28;20196;-70
2021/09/17 05:37:35;;;;;;;0.70;0.70;;;14.80;99.90;;;;;;5033997;28;20168;-70
2021/09/17 05:40:02;;;;;;;2.07;0.60;;;14.90;99.90;;;;;;5034105;28;20175;-70
2021/09/17 05:42:27;;;;;;;1.80;0.90;;;14.80;99.90;;;;;;5034027;28;20184;-71
2021/09/17 05:44:53;;;;;;;0.70;0.60;;;14.80;99.90;;;;;;5034366;28;20422;-70
2021/09/17 05:47:18;;;;;;;0.80;0.80;;;14.80;99.90;;;;;;5033805;28;20199;-72
2021/09/17 05:49:44;;;;;;;1.03;0.80;;;14.90;99.90;;;;;;5033965;28;20314;-70
2021/09/17 05:52:09;;;;;;;0.60;0.60;;;14.80;99.90;;;;;;5033605;28;20174;-71
2021/09/17 05:54:37;;;;;;;1.00;0.90;;;14.70;99.90;;;;;;5033693;28;20186;-71
2021/09/17 05:57:02;;;;;;;0.60;0.50;;;14.60;99.90;;;;;;5033192;28;20194;-70
2021/09/17 05:59:28;;;;;;;0.60;0.50;;;14.60;99.90;;;;;;5033966;28;20413;-70
2021/09/17 06:01:53;;;;;;;2.30;0.77;;;14.50;99.90;;;;;;5033699;28;20240;-70
2021/09/17 06:04:19;;;;;;;0.80;0.67;;;14.40;99.90;;;;;;5033731;28;20226;-70
2021/09/17 06:06:46;;;;;;;0.70;0.70;;;14.30;99.90;;;;;;5033303;28;20167;-70
2021/09/17 06:09:12;;;;;;;0.70;0.70;;;14.40;99.90;;;;;;5033404;28;20250;-70
2021/09/17 06:11:37;;;;;;;0.60;0.57;;;14.40;99.90;;;;;;5033833;28;20497;-70
2021/09/17 06:14:03;;;;;;;0.60;0.60;;;14.40;99.90;;;;;;5033270;28;20208;-70
2021/09/17 06:16:28;;;;;;;0.60;0.60;;;14.50;99.90;;;;;;5033360;28;20238;-70
2021/09/17 06:19:01;;;;;;;0.60;0.50;;;14.50;99.90;;;;;;5033561;28;20182;-70
2021/09/17 06:21:27;;;;;;;0.60;0.60;;;14.50;99.90;;;;;;5033502;28;20183;-70
2021/09/17 06:23:52;;;;;;;1.17;0.60;;;14.50;99.90;;;;;;5033136;28;20474;-70
2021/09/17 06:26:18;;;;;;;0.80;0.60;;;14.50;99.90;;;;;;5033036;28;20167;-70
2021/09/17 06:28:43;;;;;;;0.70;0.70;;;14.40;99.90;;;;;;5033035;28;20217;-70
2021/09/17 06:31:09;;;;;;;0.60;0.60;;;14.50;99.90;;;;;;5033255;28;20176;-71
2021/09/17 06:33:34;;;;;;;0.87;0.60;;;14.40;99.90;;;;;;5032966;28;20226;-70
2021/09/17 06:36:00;;;;;;;0.60;0.60;;;14.50;99.90;;;;;;5032927;28;20190;-71
2021/09/17 06:38:25;;;;;;;0.60;0.60;;;14.50;99.90;;;;;;5032804;28;20594;-71
2021/09/17 06:40:53;;;;;;;0.80;0.60;;;14.60;99.90;;;;;;5033125;28;20176;-71
2021/09/17 06:43:19;;;;;;;0.90;0.80;;;14.80;99.90;;;;;;5033009;28;20172;-71
2021/09/17 06:45:44;;;;;;;0.70;0.70;;;14.80;99.90;;;;;;5032859;28;20787;-71
2021/09/17 06:48:15;;;;;;;0.60;0.60;;;14.70;99.90;;;;;;5033303;28;20585;-71
2021/09/17 06:50:41;;;;;;;2.20;0.70;;;14.80;99.90;;;;;;5016229;28;20181;-71
2021/09/17 06:53:09;;;;;;;1.57;0.60;;;14.90;99.90;;;;;;5015018;28;20451;-71
2021/09/17 06:55:37;;;;;;;2.37;0.67;;;14.90;99.90;;;;;;5032564;28;20185;-71
2021/09/17 06:58:09;;;;;;;0.50;0.50;;;14.90;99.90;;;;;;5032730;28;20538;-70
2021/09/17 07:00:36;;;;;;;0.60;0.60;;;14.90;99.90;;;;;;5032883;28;20434;-70
2021/09/17 07:03:03;;;;;;;1.53;0.97;;;15.10;99.90;;;;;;5032871;28;20403;-71
2021/09/17 07:05:29;;;;;;;0.70;0.60;;;15.30;99.90;;;;;;5032536;28;20423;-71
2021/09/17 07:08:03;;;;;;;0.70;0.60;;;15.30;99.90;;;;;;5032914;28;20419;-70
2021/09/17 07:10:29;;;;;;;0.60;0.60;;;15.20;99.90;;;;;;5032734;28;20419;-70
2021/09/17 07:12:59;;;;;;;0.60;0.60;;;15.20;99.90;;;;;;5032823;28;20447;-71
2021/09/17 07:15:25;;;;;;;0.50;0.50;;;15.20;99.90;;;;;;5014613;28;20954;-71
2021/09/17 07:17:53;;;;;;;0.60;0.50;;;15.20;99.90;;;;;;5032780;28;20415;-72
2021/09/17 07:20:19;;;;;;;0.67;0.60;;;15.30;99.90;;;;;;5032017;28;20176;-71
2021/09/17 07:22:45;;;;;;;0.90;0.90;;;15.30;99.90;;;;;;5032319;28;20422;-71
2021/09/17 07:25:10;;;;;;;0.60;0.60;;;15.30;99.90;;;;;;5032630;28;20189;-72
2021/09/17 07:27:36;;;;;;;0.93;0.70;;;15.50;99.90;;;;;;5031824;28;20184;-69
2021/09/17 07:30:06;;;;;;;2.00;0.67;;;15.60;99.90;;;;;;5032755;28;20218;-71
2021/09/17 07:32:35;;;;;;;0.60;0.50;;;15.70;99.90;;;;;;5031955;28;20199;-71
2021/09/17 07:35:04;;;;;;;0.80;0.70;;;15.70;99.90;;;;;;5032248;28;20426;-71
2021/09/17 07:37:32;;;;;;;0.70;0.60;;;15.90;99.90;;;;;;5032308;28;20412;-71
2021/09/17 07:40:00;;;;;;;1.70;0.80;;;15.80;99.90;;;;;;5032053;28;20409;-70
2021/09/17 07:42:26;;;;;;;0.90;0.70;;;15.90;99.90;;;;;;5032050;28;20541;-70
2021/09/17 07:44:51;;;;;;;2.03;0.60;;;15.90;99.90;;;;;;5031969;28;20469;-70
2021/09/17 07:47:17;;;;;;;0.60;0.60;;;15.80;99.90;;;;;;5031571;28;20176;-70
2021/09/17 07:50:05;;;;;;;0.80;0.67;;;16.00;99.90;;;;;;5031700;28;20173;-70
2021/09/17 07:52:31;;;;;;;0.60;0.50;;;15.80;99.90;;;;;;4998760;28;20220;-70
2021/09/17 07:54:56;;;;;;;0.60;0.60;;;15.90;99.90;;;;;;5031120;28;20523;-70
2021/09/17 07:57:22;;;;;;;0.63;0.63;;;16.00;99.90;;;;;;5030846;28;20190;-71
2021/09/17 07:59:47;;;;;;;2.10;0.70;;;16.00;99.90;;;;;;5030817;28;20178;-70
2021/09/17 08:02:14;;;;;;;0.80;0.70;;;16.10;99.90;;;;;;5030823;28;20170;-70
2021/09/17 08:04:39;;;;;;;0.60;0.60;;;16.50;99.90;;;;;;5031393;28;20194;-70
2021/09/17 08:07:06;;;;;;;0.93;0.77;;;16.80;99.90;;;;;;5031342;28;20842;-70
2021/09/17 08:09:32;;;;;;;1.23;0.70;;;16.60;99.90;;;;;;5032007;28;20618;-70
2021/09/17 08:11:58;;;;;;;0.60;0.60;;;16.30;99.90;;;;;;5031291;28;20490;-70
2021/09/17 08:14:23;;;;;;;0.57;0.50;;;16.50;99.90;;;;;;5031268;28;20567;-71
2021/09/17 08:16:49;;;;;;;1.03;0.70;;;16.80;99.90;;;;;;5031336;28;20421;-71
2021/09/17 08:19:14;;;;;;;2.03;0.60;;;16.80;99.90;;;;;;5031315;28;20168;-70
2021/09/17 08:21:42;;;;;;;1.63;0.60;;;16.90;99.90;;;;;;5031222;28;20189;-70
2021/09/17 08:24:18;;;;;;;0.97;0.63;;;16.90;99.90;;;;;;5031147;28;20188;-71
2021/09/17 08:26:47;;;;;;;0.73;0.60;;;17.10;99.90;;;;;;5031062;28;20852;-71
2021/09/17 08:29:13;;;;;;;0.60;0.50;;;17.10;99.90;;;;;;5031172;28;20940;-70
2021/09/17 08:31:40;;;;;;;0.67;0.67;;;16.70;99.90;;;;;;5031120;28;20406;-71
2021/09/17 08:34:06;;;;;;;0.63;0.60;;;16.50;99.90;;;;;;5031053;28;20450;-71
2021/09/17 08:36:33;;;;;;;0.83;0.60;;;16.60;99.90;;;;;;5013478;28;20792;-71
2021/09/17 08:38:58;;;;;;;0.77;0.57;;;17.10;99.90;;;;;;5031159;28;20402;-69
2021/09/17 08:41:25;;;;;;;1.07;0.60;;;17.50;99.90;;;;;;5031543;28;20452;-70
2021/09/17 08:43:51;;;;;;;0.50;0.50;;;17.60;99.90;;;;;;5032901;28;20209;-70
2021/09/17 08:46:17;;;;;;;0.60;0.50;;;17.60;99.90;;;;;;5032345;28;20408;-71
2021/09/17 08:48:43;;;;;;;0.50;0.50;;;17.00;99.90;;;;;;5031825;28;20492;-71
2021/09/17 08:51:09;;;;;;;1.07;0.70;;;17.00;99.90;;;;;;5031626;28;20509;-70
2021/09/17 08:53:35;;;;;;;0.50;0.50;;;16.90;99.90;;;;;;5031938;28;20213;-70
2021/09/17 08:56:01;;;;;;;1.23;0.60;;;17.20;99.90;;;;;;5032020;28;20510;-71
2021/09/17 08:58:27;;;;;;;0.60;0.50;;;17.40;99.90;;;;;;5031980;28;20157;-71
2021/09/17 09:00:53;;;;;;;0.50;0.50;;;17.40;99.90;;;;;;5031677;28;20169;-71
2021/09/17 09:03:31;;;;;;;0.50;0.50;;;17.80;99.90;;;;;;5013975;28;20488;-71
2021/09/17 09:06:10;;;;;;;0.60;0.50;;;17.60;99.90;;;;;;5032156;28;20517;-71
2021/09/17 09:08:39;;;;;;;0.50;0.50;;;17.40;99.90;;;;;;5014483;28;20438;-71
2021/09/17 09:11:14;;;;;;;0.70;0.60;;;17.10;99.90;;;;;;5035276;28;20423;-71
2021/09/17 09:14:01;;;;;;;0.57;0.57;;;17.90;99.90;;;;;;5035676;28;20457;-71
2021/09/17 09:16:28;;;;;;;0.50;0.50;;;18.10;99.90;;;;;;5035381;28;20416;-69
2021/09/17 09:18:53;;;;;;;0.60;0.57;;;18.20;99.90;;;;;;5016407;28;20460;-69
2021/09/17 09:21:30;;;;;;;0.57;0.53;;;18.30;99.90;;;;;;5034644;28;20427;-69
2021/09/17 09:24:14;;;;;;;0.57;0.50;;;17.90;99.90;;;;;;5034706;28;20303;-69
2021/09/17 09:26:40;;;;;;;0.70;0.70;;;17.80;99.90;;;;;;5034435;28;20421;-69
2021/09/17 09:29:28;;;;;;;0.60;0.50;;;18.00;99.90;;;;;;5034121;28;20409;-70
2021/09/17 09:31:54;;;;;;;0.50;0.50;;;17.90;99.90;;;;;;5034249;28;20403;-71
2021/09/17 09:34:23;;;;;;;0.60;0.60;;;18.00;99.90;;;;;;5034309;28;20454;-70
2021/09/17 09:37:01;;;;;;;0.50;0.50;;;17.60;99.90;;;;;;5034075;28;20465;-70
2021/09/17 09:39:26;;;;;;;0.97;0.60;;;17.60;99.90;;;;;;5034542;28;20421;-70
2021/09/17 09:41:52;;;;;;;0.60;0.50;;;17.30;99.90;;;;;;5034501;28;20411;-70
2021/09/17 09:44:18;;;;;;;0.50;0.50;;;17.50;99.90;;;;;;5034183;28;20184;-70
2021/09/17 09:46:44;;;;;;;0.50;0.50;;;17.70;99.90;;;;;;5035171;28;20421;-70
2021/09/17 09:49:26;;;;;;;0.60;0.60;;;17.30;99.90;;;;;;5035262;28;20168;-70
2021/09/17 09:51:52;;;;;;;0.77;0.53;;;17.40;99.90;;;;;;5035263;28;20906;-70
2021/09/17 09:54:18;;;;;;;0.60;0.53;;;17.20;99.90;;;;;;5034499;28;20484;-70
2021/09/17 09:56:43;;;;;;;0.50;0.50;;;17.70;99.90;;;;;;5034386;28;20416;-70
2021/09/17 09:59:09;;;;;;;1.50;0.60;;;17.30;99.90;;;;;;5035005;28;20436;-70
2021/09/17 10:01:39;;;;;;;0.50;0.50;;;17.30;99.90;;;;;;5034024;28;20520;-70
2021/09/17 10:04:08;;;;;;;1.53;0.60;;;17.50;99.90;;;;;;5033619;28;20233;-71
2021/09/17 10:06:36;;;;;;;0.60;0.60;;;17.30;99.90;;;;;;5033725;28;20417;-70
2021/09/17 10:09:03;;;;;;;0.50;0.50;;;17.60;99.90;;;;;;5033892;28;20433;-70
2021/09/17 10:11:29;;;;;;;0.70;0.60;;;17.50;99.90;;;;;;5033777;28;20443;-70
2021/09/17 10:14:03;;;;;;;0.70;0.70;;;17.10;99.90;;;;;;5033345;28;20489;-70
2021/09/17 10:16:31;;;;;;;1.00;0.50;;;17.40;99.90;;;;;;5015552;28;20697;-70
2021/09/17 10:18:58;;;;;;;0.50;0.50;;;17.30;99.90;;;;;;5033169;28;20922;-70
2021/09/17 10:21:45;;;;;;;0.60;0.60;;;17.40;99.90;;;;;;5032544;28;20505;-70
2021/09/17 10:24:30;;;;;;;0.60;0.60;;;17.70;99.90;;;;;;5033168;28;20466;-70
2021/09/17 10:27:07;;;;;;;0.50;0.50;;;17.30;99.90;;;;;;5033091;28;20399;-70
2021/09/17 10:29:39;;;;;;;0.60;0.50;;;17.10;99.90;;;;;;5033115;28;20407;-70
2021/09/17 10:32:06;;;;;;;0.77;0.50;;;16.90;99.90;;;;;;5032831;28;20406;-70
2021/09/17 10:34:40;;;;;;;0.60;0.60;;;17.00;99.90;;;;;;5033140;28;20443;-70
2021/09/17 10:37:07;;;;;;;0.80;0.60;;;17.00;99.90;;;;;;5032991;28;20453;-70
2021/09/17 10:39:34;;;;;;;0.50;0.50;;;16.90;99.90;;;;;;5033029;28;20479;-70
2021/09/17 10:42:19;;;;;;;0.60;0.60;;;17.00;99.90;;;;;;5033002;28;20410;-71
2021/09/17 10:45:11;;;;;;;0.60;0.60;;;17.10;99.90;;;;;;5032969;28;20434;-70
2021/09/17 10:47:39;;;;;;;0.63;0.60;;;17.00;99.90;;;;;;5032744;28;20402;-70
2021/09/17 10:50:06;;;;;;;0.50;0.50;;;17.00;99.90;;;;;;5032850;28;20418;-71
2021/09/17 10:52:39;;;;;;;1.00;0.50;;;17.00;99.90;;;;;;5014754;28;20450;-71
2021/09/17 10:55:06;;;;;;;0.60;0.50;;;17.10;99.90;;;;;;5032920;28;20754;-71
2021/09/17 10:57:32;;;;;;;0.50;0.50;;;16.80;99.90;;;;;;5032522;28;20435;-69
2021/09/17 10:59:59;;;;;;;0.60;0.50;;;17.00;99.90;;;;;;5032633;28;20493;-71
2021/09/17 11:02:41;;;;;;;1.00;0.73;;;17.50;99.90;;;;;;5032451;28;20163;-71
2021/09/17 11:05:17;;;;;;;0.50;0.50;;;17.10;99.90;;;;;;5032355;28;20426;-70
2021/09/17 11:07:42;;;;;;;0.60;0.60;;;17.10;99.90;;;;;;5032676;28;20780;-71
2021/09/17 11:10:24;;;;;;;0.70;0.67;;;17.30;99.90;;;;;;5032440;28;20419;-70
2021/09/17 11:12:50;;;;;;;0.50;0.50;;;17.30;99.90;;;;;;5032212;28;20191;-69
2021/09/17 11:15:18;;;;;;;0.60;0.60;;;17.20;99.90;;;;;;5032322;28;20433;-69
2021/09/17 11:18:08;;;;;;;0.70;0.60;;;17.30;99.90;;;;;;5031855;28;20172;-70
2021/09/17 11:20:33;;;;;;;0.60;0.50;;;17.80;99.90;;;;;;5032342;28;20479;-70
2021/09/17 11:23:03;;;;;;;0.80;0.80;;;17.80;99.90;;;;;;5032089;28;20461;-70
2021/09/17 11:25:38;;;;;;;0.53;0.53;;;17.50;99.90;;;;;;5032038;28;20207;-70
2021/09/17 11:28:07;;;;;;;1.00;0.67;;;17.60;99.90;;;;;;5031770;28;20416;-70
2021/09/17 11:30:35;;;;;;;0.70;0.60;;;17.20;99.90;;;;;;5032163;28;20403;-70
2021/09/17 11:33:15;;;;;;;0.60;0.60;;;17.20;99.90;;;;;;5030989;28;20453;-69
2021/09/17 11:35:40;;;;;;;0.90;0.70;;;17.20;99.90;;;;;;5032147;28;20402;-70
2021/09/17 11:38:06;;;;;;;1.80;1.70;;;17.50;99.90;;;;;;5031931;28;20891;-70
2021/09/17 11:40:31;;;;;;;0.60;0.57;;;18.00;99.90;;;;;;5031938;28;20178;-70
2021/09/17 11:42:57;;;;;;;0.57;0.50;;;17.90;99.90;;;;;;5031919;28;20666;-70
2021/09/17 11:45:24;;;;;;;0.90;0.53;;;17.50;99.90;;;;;;5031837;28;20196;-70
2021/09/17 11:47:54;;;;;;;0.70;0.60;;;17.60;99.90;;;;;;5031811;28;20167;-70
2021/09/17 11:50:26;;;;;;;0.70;0.60;;;17.30;99.90;;;;;;5031617;28;20878;-70
2021/09/17 11:52:54;;;;;;;0.50;0.50;;;16.80;99.90;;;;;;5031437;28;20446;-69
2021/09/17 11:55:21;;;;;;;0.70;0.60;;;16.80;99.90;;;;;;5031237;28;20496;-70
2021/09/17 11:57:50;;;;;;;0.70;0.57;;;16.40;99.90;;;;;;5031419;28;20782;-70
2021/09/17 12:00:17;;;;;;;0.60;0.50;;;16.40;99.90;;;;;;5031521;28;20412;-70
2021/09/17 12:02:44;;;;;;;0.60;0.60;;;16.70;99.90;;;;;;5031517;28;20431;-70
2021/09/17 12:05:22;;;;;;;0.67;0.67;;;16.80;99.90;;;;;;5031410;28;20448;-70
2021/09/17 12:07:51;;;;;;;0.60;0.50;;;17.00;99.90;;;;;;5013824;28;20417;-70
2021/09/17 12:10:32;;;;;;;0.50;0.50;;;16.90;99.90;;;;;;5031629;28;20434;-69
2021/09/17 12:13:12;;;;;;;0.57;0.53;;;17.20;99.90;;;;;;5031338;28;20446;-70
2021/09/17 12:15:43;;;;;;;0.60;0.57;;;17.20;99.90;;;;;;5031362;28;20484;-70
2021/09/17 12:18:10;;;;;;;0.50;0.50;;;17.20;99.90;;;;;;5031034;28;20404;-69
2021/09/17 12:20:48;;;;;;;0.50;0.50;;;17.20;99.90;;;;;;5031252;28;20535;-69
2021/09/17 12:23:19;;;;;;;0.97;0.50;;;17.20;99.90;;;;;;5031289;28;20456;-69
2021/09/17 12:25:47;;;;;;;0.60;0.60;;;17.30;99.90;;;;;;5031156;28;20489;-69
2021/09/17 12:28:21;;;;;;;0.60;0.50;;;17.50;99.90;;;;;;5031527;28;20406;-69
2021/09/17 12:30:48;;;;;;;1.00;0.57;;;17.20;99.90;;;;;;5031082;28;20810;-70
2021/09/17 12:33:18;;;;;;;0.60;0.60;;;17.20;99.90;;;;;;5031093;28;20458;-70
2021/09/17 12:35:47;;;;;;;0.60;0.50;;;17.20;99.90;;;;;;5031363;28;20409;-70
2021/09/17 12:38:14;;;;;;;0.50;0.50;;;17.20;99.90;;;;;;5031215;28;20413;-70
2021/09/17 12:40:46;;;;;;;0.60;0.50;;;17.20;99.90;;;;;;5031107;28;20405;-70
2021/09/17 12:43:22;;;;;;;0.50;0.50;;;17.70;99.90;;;;;;5031224;28;20406;-70
2021/09/17 12:46:12;;;;;;;0.50;0.50;;;17.70;99.90;;;;;;5035118;28;20992;-70
2021/09/17 12:48:40;;;;;;;0.50;0.50;;;17.60;99.90;;;;;;5034984;28;20420;-70
2021/09/17 12:51:07;;;;;;;0.60;0.60;;;17.80;99.90;;;;;;5034971;28;20411;-72